Time;durP1;ratioP1;P1;durP2;ratioP2;P2;SDS_P1;SDS_P2;PMS_P1;PMS_P2;Temp;Humidity;BMP_temperature;BMP_pressure;BME280_temperature;BME280_humidity;BME280_pressure;Samples;Min_cycle;Max_cycle;Signal;HPM_P1;HPM_P2
2021/05/27 00:00:51;;;;;;;;;6.00;6.00;;;;;;;;5024501;28;10774;-83
2021/05/27 00:03:18;;;;;;;;;2.00;2.00;;;;;;;;5037477;28;10870;-85
2021/05/27 00:05:45;;;;;;;;;6.00;4.00;;;;;;;;5042852;28;10906;-85
2021/05/27 00:08:12;;;;;;;;;3.00;3.00;;;;;;;;5045721;28;10796;-85
2021/05/27 00:10:39;;;;;;;;;2.50;2.50;;;;;;;;5013300;28;10757;-87
2021/05/27 00:13:06;;;;;;;;;2.25;2.25;;;;;;;;5048058;28;11666;-86
2021/05/27 00:15:33;;;;;;;;;2.50;2.50;;;;;;;;5047226;28;10904;-85
2021/05/27 00:18:01;;;;;;;;;5.00;5.00;;;;;;;;5047704;28;10944;-86
2021/05/27 00:20:28;;;;;;;;;2.25;2.25;;;;;;;;5047072;28;11104;-86
2021/05/27 00:22:55;;;;;;;;;4.00;4.00;;;;;;;;5047310;28;10951;-83
2021/05/27 00:25:23;;;;;;;;;2.00;2.00;;;;;;;;5039616;28;10917;-82
2021/05/27 00:27:50;;;;;;;;;3.00;3.00;;;;;;;;5028425;28;11110;-82
2021/05/27 00:30:18;;;;;;;;;3.00;3.00;;;;;;;;5044897;28;11056;-85
2021/05/27 00:32:46;;;;;;;;;5.00;5.00;;;;;;;;5026598;28;11259;-83
2021/05/27 00:35:14;;;;;;;;;3.00;3.00;;;;;;;;5046057;28;11197;-86
2021/05/27 00:37:41;;;;;;;;;2.75;2.75;;;;;;;;5046127;28;11154;-83
2021/05/27 00:40:11;;;;;;;;;3.50;3.00;;;;;;;;5047526;28;11429;-84
2021/05/27 00:42:38;;;;;;;;;4.50;2.50;;;;;;;;5040383;28;11468;-84
2021/05/27 00:45:08;;;;;;;;;7.00;7.00;;;;;;;;5047175;28;11149;-84
2021/05/27 00:47:35;;;;;;;;;5.25;5.25;;;;;;;;5047412;28;11544;-85
2021/05/27 00:50:02;;;;;;;;;6.00;6.00;;;;;;;;5041521;28;11477;-83
2021/05/27 00:52:32;;;;;;;;;3.50;3.50;;;;;;;;5047253;28;12253;-84
2021/05/27 00:54:59;;;;;;;;;7.00;6.00;;;;;;;;5027832;28;11470;-85
2021/05/27 00:57:32;;;;;;;;;3.00;3.00;;;;;;;;5046209;28;11344;-86
2021/05/27 01:00:00;;;;;;;;;5.00;5.00;;;;;;;;5044607;28;11474;-81
2021/05/27 01:02:27;;;;;;;;;5.00;5.00;;;;;;;;5045099;28;11426;-84
2021/05/27 01:04:55;;;;;;;;;5.00;4.50;;;;;;;;5023027;28;11439;-84
2021/05/27 01:07:22;;;;;;;;;6.00;6.00;;;;;;;;5045119;28;11575;-80
2021/05/27 01:09:51;;;;;;;;;5.75;5.75;;;;;;;;5046883;28;11446;-83
2021/05/27 01:12:18;;;;;;;;;4.50;4.50;;;;;;;;5044160;28;11438;-83
2021/05/27 01:17:30;;;;;;;;;4.50;4.50;;;;;;;;5045037;28;11420;-83
2021/05/27 01:19:57;;;;;;;;;5.00;5.00;;;;;;;;5044214;28;11566;-83
2021/05/27 01:22:25;;;;;;;;;3.00;3.00;;;;;;;;5032099;28;11509;-83
2021/05/27 01:24:52;;;;;;;;;6.00;5.00;;;;;;;;5040441;28;11458;-85
2021/05/27 01:27:19;;;;;;;;;5.00;5.00;;;;;;;;5046247;28;11449;-84
2021/05/27 01:29:51;;;;;;;;;4.00;4.00;;;;;;;;5026629;28;11475;-81
2021/05/27 01:32:18;;;;;;;;;5.00;5.00;;;;;;;;5045486;28;11316;-82
2021/05/27 01:34:45;;;;;;;;;2.00;1.00;;;;;;;;5044676;28;11439;-83
2021/05/27 01:37:12;;;;;;;;;5.00;5.00;;;;;;;;5044172;28;11252;-83
2021/05/27 01:39:45;;;;;;;;;6.00;5.75;;;;;;;;5044597;28;11584;-83
2021/05/27 01:42:12;;;;;;;;;5.00;5.00;;;;;;;;5040491;28;11563;-83
2021/05/27 01:44:39;;;;;;;;;0.00;0.00;;;;;;;;5045342;28;11447;-78
2021/05/27 01:47:06;;;;;;;;;3.00;3.00;;;;;;;;5043785;28;11217;-84
2021/05/27 01:49:33;;;;;;;;;5.50;5.50;;;;;;;;5046511;28;11441;-83
2021/05/27 01:52:00;;;;;;;;;6.00;6.00;;;;;;;;5045029;28;11443;-83
2021/05/27 01:54:27;;;;;;;;;6.00;6.00;;;;;;;;5045312;28;11467;-84
2021/05/27 01:56:55;;;;;;;;;5.50;5.50;;;;;;;;5045716;28;11468;-84
2021/05/27 01:59:22;;;;;;;;;6.50;6.50;;;;;;;;5026612;28;11437;-83
2021/05/27 02:01:49;;;;;;;;;6.25;6.25;;;;;;;;5042248;28;12986;-85
2021/05/27 02:04:16;;;;;;;;;8.75;6.75;;;;;;;;5039852;28;11599;-83
2021/05/27 02:06:43;;;;;;;;;7.75;6.00;;;;;;;;5045660;28;11473;-84
2021/05/27 02:09:10;;;;;;;;;6.50;6.50;;;;;;;;5044702;28;12350;-83
2021/05/27 02:11:39;;;;;;;;;5.00;5.00;;;;;;;;5042140;28;11482;-81
2021/05/27 02:14:08;;;;;;;;;7.00;7.00;;;;;;;;5045232;28;11583;-85
2021/05/27 02:16:36;;;;;;;;;9.50;7.50;;;;;;;;5043956;28;12310;-84
2021/05/27 02:19:04;;;;;;;;;5.00;5.00;;;;;;;;5045500;28;11439;-83
2021/05/27 02:21:30;;;;;;;;;9.50;7.00;;;;;;;;5027296;28;11422;-82
2021/05/27 02:23:59;;;;;;;;;6.25;6.25;;;;;;;;5049686;28;11516;-84
2021/05/27 02:26:26;;;;;;;;;10.00;7.00;;;;;;;;5043831;28;11480;-84
2021/05/27 02:28:53;;;;;;;;;10.00;6.00;;;;;;;;5044606;28;11608;-84
2021/05/27 02:31:22;;;;;;;;;6.00;6.00;;;;;;;;5042997;28;11381;-83
2021/05/27 02:33:50;;;;;;;;;11.25;9.00;;;;;;;;5042595;28;11527;-84
2021/05/27 02:36:17;;;;;;;;;6.00;6.00;;;;;;;;5026176;28;11437;-84
2021/05/27 02:38:44;;;;;;;;;9.75;7.25;;;;;;;;5044082;28;11437;-84
2021/05/27 02:41:11;;;;;;;;;5.00;5.00;;;;;;;;5044691;28;11459;-80
2021/05/27 02:43:38;;;;;;;;;7.50;7.50;;;;;;;;5043621;28;11437;-83
2021/05/27 02:46:05;;;;;;;;;5.00;5.00;;;;;;;;5044769;28;11655;-82
2021/05/27 02:48:33;;;;;;;;;10.00;10.00;;;;;;;;5041703;28;11576;-84
2021/05/27 02:51:01;;;;;;;;;6.75;6.75;;;;;;;;5044082;28;11489;-82
2021/05/27 02:53:28;;;;;;;;;11.50;10.00;;;;;;;;5044856;28;11541;-83
2021/05/27 02:55:55;;;;;;;;;11.00;6.75;;;;;;;;5042738;28;11687;-83
2021/05/27 02:58:23;;;;;;;;;7.00;7.00;;;;;;;;5044041;28;11513;-83
2021/05/27 03:00:50;;;;;;;;;9.00;7.00;;;;;;;;5043270;28;11441;-83
2021/05/27 03:03:20;;;;;;;;;9.75;9.75;;;;;;;;5042420;28;12296;-83
2021/05/27 03:05:48;;;;;;;;;10.00;10.00;;;;;;;;5042618;28;11668;-83
2021/05/27 03:08:15;;;;;;;;;11.00;9.00;;;;;;;;5043560;28;11474;-82
2021/05/27 03:10:43;;;;;;;;;9.75;7.00;;;;;;;;5043041;28;11575;-82
2021/05/27 03:13:10;;;;;;;;;8.00;8.00;;;;;;;;5042237;28;11578;-81
2021/05/27 03:15:38;;;;;;;;;10.25;7.00;;;;;;;;5043542;28;11703;-80
2021/05/27 03:18:06;;;;;;;;;9.75;7.00;;;;;;;;5038426;28;11463;-82
2021/05/27 03:20:33;;;;;;;;;9.00;9.00;;;;;;;;5043653;28;11443;-83
2021/05/27 03:23:03;;;;;;;;;11.00;10.25;;;;;;;;5040433;28;12290;-82
2021/05/27 03:25:30;;;;;;;;;11.00;11.00;;;;;;;;5046531;28;11491;-82
2021/05/27 03:27:57;;;;;;;;;6.00;6.00;;;;;;;;5044069;28;11589;-84
2021/05/27 03:30:24;;;;;;;;;9.00;9.00;;;;;;;;5038865;28;11375;-81
2021/05/27 03:32:51;;;;;;;;;7.25;7.25;;;;;;;;5039798;28;11485;-81
2021/05/27 03:35:18;;;;;;;;;6.50;6.50;;;;;;;;5041899;28;11468;-83
2021/05/27 03:37:45;;;;;;;;;8.25;6.75;;;;;;;;5043450;28;11541;-83
2021/05/27 03:40:16;;;;;;;;;9.25;9.25;;;;;;;;5042746;28;11436;-80
2021/05/27 03:42:44;;;;;;;;;10.50;9.25;;;;;;;;5042977;28;11468;-83
2021/05/27 03:45:13;;;;;;;;;7.00;7.00;;;;;;;;5043979;28;11444;-84
2021/05/27 03:47:40;;;;;;;;;10.75;10.75;;;;;;;;5039081;28;11450;-82
2021/05/27 03:50:09;;;;;;;;;8.50;7.50;;;;;;;;5026064;28;11606;-84
2021/05/27 03:52:36;;;;;;;;;8.00;8.00;;;;;;;;5042191;28;11452;-83
2021/05/27 03:55:05;;;;;;;;;8.50;8.50;;;;;;;;5026401;28;11481;-85
2021/05/27 03:57:33;;;;;;;;;10.00;9.75;;;;;;;;5024313;28;12313;-81
2021/05/27 04:02:47;;;;;;;;;9.25;9.25;;;;;;;;5033198;28;11365;-84
2021/05/27 04:07:59;;;;;;;;;9.25;9.25;;;;;;;;5044328;28;11496;-83
2021/05/27 04:10:26;;;;;;;;;8.00;8.00;;;;;;;;5044683;28;11494;-82
2021/05/27 04:12:54;;;;;;;;;9.75;8.75;;;;;;;;5041519;28;11647;-84
2021/05/27 04:15:23;;;;;;;;;12.00;9.75;;;;;;;;5043175;28;11482;-83
2021/05/27 04:17:59;;;;;;;;;10.50;10.00;;;;;;;;5046414;28;11496;-80
2021/05/27 04:20:27;;;;;;;;;9.75;9.75;;;;;;;;5035336;28;11546;-87
2021/05/27 04:22:54;;;;;;;;;6.75;6.75;;;;;;;;5031040;28;11491;-84
2021/05/27 04:25:24;;;;;;;;;8.00;8.00;;;;;;;;5044193;28;11469;-85
2021/05/27 04:27:52;;;;;;;;;14.25;10.50;;;;;;;;5041723;28;11470;-89
2021/05/27 04:30:21;;;;;;;;;8.50;8.50;;;;;;;;5042514;28;11655;-88
2021/05/27 04:32:56;;;;;;;;;12.50;9.75;;;;;;;;5043000;28;11565;-83
2021/05/27 04:35:29;;;;;;;;;8.00;8.00;;;;;;;;5038635;28;11425;-84
2021/05/27 04:37:58;;;;;;;;;6.50;1.75;;;;;;;;5044152;28;11452;-84
2021/05/27 04:40:26;;;;;;;;;11.00;9.50;;;;;;;;5042835;28;11587;-84
2021/05/27 04:42:53;;;;;;;;;9.75;7.00;;;;;;;;5044592;28;11505;-84
2021/05/27 04:45:21;;;;;;;;;9.50;9.50;;;;;;;;5040729;28;11445;-84
2021/05/27 04:47:48;;;;;;;;;6.25;6.25;;;;;;;;5039580;28;11657;-83
2021/05/27 04:50:15;;;;;;;;;8.00;8.00;;;;;;;;5042780;28;11438;-85
2021/05/27 04:52:42;;;;;;;;;8.50;8.50;;;;;;;;5043644;28;11653;-86
2021/05/27 04:55:11;;;;;;;;;13.50;9.50;;;;;;;;5047700;28;11519;-81
2021/05/27 04:57:39;;;;;;;;;10.50;10.50;;;;;;;;5028209;28;11436;-85
2021/05/27 05:00:10;;;;;;;;;16.75;14.00;;;;;;;;5043274;28;11486;-84
2021/05/27 05:02:38;;;;;;;;;9.75;9.75;;;;;;;;5040767;28;11614;-83
2021/05/27 05:05:07;;;;;;;;;14.00;11.00;;;;;;;;5045355;28;11602;-84
2021/05/27 05:07:34;;;;;;;;;13.75;10.75;;;;;;;;5046596;28;11525;-76
2021/05/27 05:10:01;;;;;;;;;15.75;11.50;;;;;;;;5045583;28;11514;-78
2021/05/27 05:12:28;;;;;;;;;11.50;11.50;;;;;;;;5043972;28;11481;-82
2021/05/27 05:14:55;;;;;;;;;7.50;7.50;;;;;;;;5044063;28;11530;-81
2021/05/27 05:17:22;;;;;;;;;18.25;13.75;;;;;;;;5046330;28;11485;-82
2021/05/27 05:19:50;;;;;;;;;10.50;10.50;;;;;;;;5044501;28;12235;-77
2021/05/27 05:22:17;;;;;;;;;14.25;10.50;;;;;;;;5040606;28;11615;-83
2021/05/27 05:24:43;;;;;;;;;13.25;11.50;;;;;;;;5043175;28;11488;-83
2021/05/27 05:27:10;;;;;;;;;12.25;10.50;;;;;;;;5045306;28;11538;-76
2021/05/27 05:29:37;;;;;;;;;11.00;11.00;;;;;;;;5045777;28;11460;-75
2021/05/27 05:32:04;;;;;;;;;15.25;12.00;;;;;;;;5042946;28;11175;-81
2021/05/27 05:34:31;;;;;;;;;11.50;11.50;;;;;;;;5043717;28;11283;-80
2021/05/27 05:36:59;;;;;;;;;18.75;12.00;;;;;;;;5043049;28;11348;-84
2021/05/27 05:39:26;;;;;;;;;12.50;12.50;;;;;;;;5045483;28;11438;-87
2021/05/27 05:41:53;;;;;;;;;15.50;13.00;;;;;;;;5046153;28;11941;-85
2021/05/27 05:44:20;;;;;;;;;10.50;10.00;;;;;;;;5047021;28;11324;-86
2021/05/27 05:46:46;;;;;;;;;11.00;11.00;;;;;;;;5045858;28;11159;-88
2021/05/27 05:49:13;;;;;;;;;12.50;12.50;;;;;;;;5036617;28;11428;-87
2021/05/27 05:51:40;;;;;;;;;10.75;10.75;;;;;;;;5044246;28;11307;-87
2021/05/27 05:54:08;;;;;;;;;11.50;10.50;;;;;;;;5027312;28;11090;-90
2021/05/27 05:56:35;;;;;;;;;14.00;10.50;;;;;;;;5028496;28;11346;-89
2021/05/27 05:59:02;;;;;;;;;11.75;10.25;;;;;;;;5044888;28;11081;-86
2021/05/27 06:01:29;;;;;;;;;12.25;12.25;;;;;;;;5026473;28;11065;-75
2021/05/27 06:03:56;;;;;;;;;14.25;10.25;;;;;;;;5021597;28;11043;-74
2021/05/27 06:06:23;;;;;;;;;15.75;8.75;;;;;;;;5041239;28;11703;-76
2021/05/27 06:08:50;;;;;;;;;9.25;8.75;;;;;;;;5044259;28;11871;-76
2021/05/27 06:11:19;;;;;;;;;9.50;9.00;;;;;;;;5042976;28;11138;-77
2021/05/27 06:13:46;;;;;;;;;7.50;7.50;;;;;;;;5044067;28;11031;-75
2021/05/27 06:16:12;;;;;;;;;11.00;11.00;;;;;;;;5025649;28;10854;-75
2021/05/27 06:18:39;;;;;;;;;12.75;12.75;;;;;;;;5039032;28;11048;-76
2021/05/27 06:21:06;;;;;;;;;9.00;9.00;;;;;;;;5037697;28;11017;-74
2021/05/27 06:23:33;;;;;;;;;14.25;10.75;;;;;;;;5041964;28;11072;-74
2021/05/27 06:26:00;;;;;;;;;11.75;11.75;;;;;;;;5039171;28;10923;-74
2021/05/27 06:28:28;;;;;;;;;10.50;8.00;;;;;;;;5041098;28;10777;-75
2021/05/27 06:30:56;;;;;;;;;11.75;9.00;;;;;;;;5042126;28;10595;-76
2021/05/27 06:33:23;;;;;;;;;26.25;25.00;;;;;;;;5043132;28;11141;-74
2021/05/27 06:35:50;;;;;;;;;36.25;34.00;;;;;;;;5043868;28;12366;-76
2021/05/27 06:38:17;;;;;;;;;31.25;30.00;;;;;;;;5041827;28;11490;-75
2021/05/27 06:40:43;;;;;;;;;20.25;20.25;;;;;;;;5043876;28;11526;-74
2021/05/27 06:43:10;;;;;;;;;13.50;13.50;;;;;;;;5025557;28;11468;-76
2021/05/27 06:45:38;;;;;;;;;19.00;17.75;;;;;;;;5042410;28;12289;-75
2021/05/27 06:48:07;;;;;;;;;16.75;15.75;;;;;;;;5042571;28;11498;-74
2021/05/27 06:50:35;;;;;;;;;12.00;12.00;;;;;;;;5008629;28;11122;-76
2021/05/27 06:53:04;;;;;;;;;9.25;9.25;;;;;;;;5042906;28;10980;-75
2021/05/27 06:55:31;;;;;;;;;7.25;7.25;;;;;;;;5024363;28;10915;-76
2021/05/27 06:57:58;;;;;;;;;13.00;10.75;;;;;;;;5040345;28;10495;-74
2021/05/27 07:00:25;;;;;;;;;9.00;9.00;;;;;;;;5025387;28;11023;-76
2021/05/27 07:02:53;;;;;;;;;12.25;8.25;;;;;;;;5037346;28;10456;-76
2021/05/27 07:05:21;;;;;;;;;10.50;10.50;;;;;;;;5020739;28;10318;-72
2021/05/27 07:07:48;;;;;;;;;13.25;8.75;;;;;;;;5001295;28;10186;-75
2021/05/27 07:10:15;;;;;;;;;8.75;8.75;;;;;;;;5003657;28;10213;-73
2021/05/27 07:12:49;;;;;;;;;10.75;10.75;;;;;;;;5002841;28;10222;-75
2021/05/27 07:15:17;;;;;;;;;8.00;8.00;;;;;;;;5002112;28;10273;-75
2021/05/27 07:17:44;;;;;;;;;8.50;8.50;;;;;;;;5003950;28;10049;-75
2021/05/27 07:20:14;;;;;;;;;9.75;9.75;;;;;;;;4987221;28;10079;-74
2021/05/27 07:22:41;;;;;;;;;9.00;9.00;;;;;;;;5007638;28;10652;-72
2021/05/27 07:25:09;;;;;;;;;10.50;10.50;;;;;;;;5001639;28;9873;-73
2021/05/27 07:27:36;;;;;;;;;11.75;11.75;;;;;;;;5003395;28;9854;-75
2021/05/27 07:30:05;;;;;;;;;9.50;9.50;;;;;;;;5001615;28;9875;-75
2021/05/27 07:32:33;;;;;;;;;11.00;10.00;;;;;;;;4981552;28;9655;-72
2021/05/27 07:35:00;;;;;;;;;7.00;7.00;;;;;;;;5003079;28;9780;-75
2021/05/27 07:37:29;;;;;;;;;15.50;13.00;;;;;;;;5003428;28;9500;-72
2021/05/27 07:39:56;;;;;;;;;17.00;14.00;;;;;;;;4997046;28;9584;-75
2021/05/27 07:42:23;;;;;;;;;8.25;8.25;;;;;;;;5001898;28;9479;-76
2021/05/27 07:44:50;;;;;;;;;7.67;7.67;;;;;;;;5005998;28;10275;-76
2021/05/27 07:47:18;;;;;;;;;9.00;9.00;;;;;;;;5002344;28;10167;-75
2021/05/27 07:49:49;;;;;;;;;10.00;10.00;;;;;;;;5003586;28;10009;-73
2021/05/27 07:52:16;;;;;;;;;12.33;9.33;;;;;;;;5003389;28;9289;-74
2021/05/27 07:54:48;;;;;;;;;10.67;9.33;;;;;;;;5002962;28;9295;-75
2021/05/27 07:57:15;;;;;;;;;10.33;8.33;;;;;;;;5003782;28;9359;-74
2021/05/27 07:59:42;;;;;;;;;11.67;10.00;;;;;;;;5000954;28;10784;-75
2021/05/27 08:02:09;;;;;;;;;15.00;15.00;;;;;;;;5003352;28;9153;-73
2021/05/27 08:04:37;;;;;;;;;12.00;10.67;;;;;;;;5004491;28;9281;-76
2021/05/27 08:07:04;;;;;;;;;11.33;11.33;;;;;;;;5003347;28;9207;-76
2021/05/27 08:09:31;;;;;;;;;19.00;15.33;;;;;;;;5002981;28;9082;-75
2021/05/27 08:12:00;;;;;;;;;18.00;15.67;;;;;;;;5004595;28;9022;-74
2021/05/27 08:14:27;;;;;;;;;10.50;10.50;;;;;;;;5003561;28;9851;-73
2021/05/27 08:16:55;;;;;;;;;11.00;9.33;;;;;;;;5002394;28;8867;-73
2021/05/27 08:19:22;;;;;;;;;11.75;10.75;;;;;;;;4985445;28;9135;-74
2021/05/27 08:21:49;;;;;;;;;11.25;11.00;;;;;;;;5002170;28;8877;-73
2021/05/27 08:24:17;;;;;;;;;13.00;13.00;;;;;;;;5004400;28;8870;-79
2021/05/27 08:26:44;;;;;;;;;11.75;10.25;;;;;;;;5004697;28;8866;-76
2021/05/27 08:29:13;;;;;;;;;12.75;11.00;;;;;;;;5015891;28;8949;-74
2021/05/27 08:31:41;;;;;;;;;14.75;13.00;;;;;;;;4994119;28;8926;-75
2021/05/27 08:34:08;;;;;;;;;12.00;11.50;;;;;;;;5007903;28;8874;-74
2021/05/27 08:36:36;;;;;;;;;11.00;11.00;;;;;;;;5006823;28;8924;-74
2021/05/27 08:39:04;;;;;;;;;12.75;12.75;;;;;;;;5012902;28;8861;-74
2021/05/27 08:41:31;;;;;;;;;12.25;12.25;;;;;;;;5010889;28;8887;-76
2021/05/27 08:43:59;;;;;;;;;11.00;11.00;;;;;;;;5004899;28;8928;-74
2021/05/27 08:46:27;;;;;;;;;11.50;10.00;;;;;;;;5007093;28;8933;-75
2021/05/27 08:48:54;;;;;;;;;13.00;11.00;;;;;;;;5009177;28;8853;-76
2021/05/27 08:51:21;;;;;;;;;6.75;6.75;;;;;;;;5005702;28;8885;-76
2021/05/27 08:53:48;;;;;;;;;13.00;10.75;;;;;;;;5006743;28;8886;-76
2021/05/27 08:56:19;;;;;;;;;8.25;8.25;;;;;;;;5004810;28;8867;-74
2021/05/27 08:58:48;;;;;;;;;13.00;13.00;;;;;;;;5012169;28;8891;-73
2021/05/27 09:01:20;;;;;;;;;9.00;7.75;;;;;;;;5004663;28;8839;-75
2021/05/27 09:03:48;;;;;;;;;11.00;11.00;;;;;;;;5003623;28;8858;-76
2021/05/27 09:06:16;;;;;;;;;14.50;12.75;;;;;;;;5007758;28;8889;-76
2021/05/27 09:08:44;;;;;;;;;10.00;10.00;;;;;;;;5005389;28;8987;-74
2021/05/27 09:11:12;;;;;;;;;9.50;8.75;;;;;;;;5000361;28;8874;-76
2021/05/27 09:13:52;;;;;;;;;9.00;9.00;;;;;;;;4988348;28;8866;-75
2021/05/27 09:16:19;;;;;;;;;8.00;8.00;;;;;;;;5000500;28;8866;-74
2021/05/27 09:18:48;;;;;;;;;8.75;8.75;;;;;;;;5004291;28;9029;-74
2021/05/27 09:21:17;;;;;;;;;8.00;8.00;;;;;;;;5006679;28;8878;-75
2021/05/27 09:23:48;;;;;;;;;11.25;9.25;;;;;;;;5004577;28;9558;-75
2021/05/27 09:26:16;;;;;;;;;11.25;11.25;;;;;;;;5003885;28;8891;-74
2021/05/27 09:28:45;;;;;;;;;14.00;10.25;;;;;;;;5008394;28;9629;-76
2021/05/27 09:31:14;;;;;;;;;9.25;9.25;;;;;;;;5004129;28;9617;-75
2021/05/27 09:33:42;;;;;;;;;9.50;9.50;;;;;;;;5000316;28;8878;-75
2021/05/27 09:36:12;;;;;;;;;12.00;9.00;;;;;;;;5003095;28;8863;-75
2021/05/27 09:38:42;;;;;;;;;11.50;11.00;;;;;;;;5005440;28;8879;-76
2021/05/27 09:41:16;;;;;;;;;8.75;8.00;;;;;;;;5005348;28;8892;-75
2021/05/27 09:43:46;;;;;;;;;9.00;9.00;;;;;;;;5001453;28;8887;-74
2021/05/27 09:46:13;;;;;;;;;10.00;8.50;;;;;;;;5004941;28;8947;-77
2021/05/27 09:48:40;;;;;;;;;13.00;11.25;;;;;;;;5003298;28;8875;-77
2021/05/27 09:51:07;;;;;;;;;9.00;9.00;;;;;;;;4992133;28;8874;-76
2021/05/27 09:53:36;;;;;;;;;11.00;9.00;;;;;;;;5003255;28;8862;-76
2021/05/27 09:56:05;;;;;;;;;11.00;9.00;;;;;;;;4989340;28;8871;-77
2021/05/27 09:58:32;;;;;;;;;11.25;9.50;;;;;;;;5004406;28;8901;-79
2021/05/27 10:01:08;;;;;;;;;8.00;7.75;;;;;;;;5003479;28;9584;-79
2021/05/27 10:03:36;;;;;;;;;11.75;9.75;;;;;;;;5000684;28;8881;-77
2021/05/27 10:06:05;;;;;;;;;9.00;9.00;;;;;;;;5003512;28;8908;-79
2021/05/27 10:08:56;;;;;;;;;9.75;9.75;;;;;;;;5003954;28;9001;-80
2021/05/27 10:11:26;;;;;;;;;13.00;11.00;;;;;;;;5001028;28;8887;-79
2021/05/27 10:13:54;;;;;;;;;11.00;9.50;;;;;;;;5004162;28;9694;-78
2021/05/27 10:16:23;;;;;;;;;10.00;8.60;;;;;;;;5004088;28;8835;-79
2021/05/27 10:18:51;;;;;;;;;8.00;8.00;;;;;;;;5003859;28;8870;-79
2021/05/27 10:21:19;;;;;;;;;11.80;10.20;;;;;;;;5004024;28;8980;-78
2021/05/27 10:23:46;;;;;;;;;10.00;9.00;;;;;;;;5003028;28;9668;-78
2021/05/27 10:26:14;;;;;;;;;10.00;10.00;;;;;;;;5004470;28;8858;-79
2021/05/27 10:28:46;;;;;;;;;9.40;9.40;;;;;;;;5009823;28;8869;-78
2021/05/27 10:31:14;;;;;;;;;9.80;8.20;;;;;;;;4991597;28;8815;-79
2021/05/27 10:33:42;;;;;;;;;7.00;7.00;;;;;;;;5005545;28;8890;-80
2021/05/27 10:36:13;;;;;;;;;8.40;8.40;;;;;;;;5004904;28;8884;-74
2021/05/27 10:38:51;;;;;;;;;5.60;4.40;;;;;;;;5004907;28;8904;-74
2021/05/27 10:41:38;;;;;;;;;9.40;9.40;;;;;;;;5003616;28;9593;-74
2021/05/27 10:44:16;;;;;;;;;8.00;8.00;;;;;;;;5006092;28;8867;-74
2021/05/27 10:47:12;;;;;;;;;8.20;8.20;;;;;;;;4999914;28;8908;-73
2021/05/27 10:49:58;;;;;;;;;7.00;7.00;;;;;;;;4999021;28;10163;-74
2021/05/27 10:52:44;;;;;;;;;10.80;8.00;;;;;;;;5005414;28;8976;-80
2021/05/27 10:55:47;;;;;;;;;11.20;10.00;;;;;;;;4996629;28;8876;-80
2021/05/27 10:58:15;;;;;;;;;8.00;8.00;;;;;;;;4991838;28;8871;-79
2021/05/27 11:00:54;;;;;;;;;5.20;5.20;;;;;;;;5003506;28;8833;-78
2021/05/27 11:03:44;;;;;;;;;7.20;7.20;;;;;;;;5001996;28;9696;-77
2021/05/27 11:06:35;;;;;;;;;7.00;7.00;;;;;;;;5002277;28;8863;-82
2021/05/27 11:09:33;;;;;;;;;6.40;6.40;;;;;;;;4985629;28;8867;-79
2021/05/27 11:12:16;;;;;;;;;9.40;8.40;;;;;;;;4997792;28;8871;-82
2021/05/27 11:14:46;;;;;;;;;7.20;7.20;;;;;;;;5003206;28;8906;-78
2021/05/27 11:17:22;;;;;;;;;5.00;5.00;;;;;;;;5003355;28;8847;-83
2021/05/27 11:19:53;;;;;;;;;8.00;5.60;;;;;;;;5002444;28;8906;-78
2021/05/27 11:22:48;;;;;;;;;5.80;5.80;;;;;;;;5004418;28;8962;-79
2021/05/27 11:25:26;;;;;;;;;3.00;3.00;;;;;;;;5002937;28;8934;-79
2021/05/27 11:27:54;;;;;;;;;3.00;3.00;;;;;;;;4996569;28;8835;-76
2021/05/27 11:30:23;;;;;;;;;4.20;4.20;;;;;;;;5004700;28;8845;-78
2021/05/27 11:32:52;;;;;;;;;5.80;5.80;;;;;;;;4984495;28;8870;-77
2021/05/27 11:35:20;;;;;;;;;5.00;5.00;;;;;;;;5000535;28;8937;-76
2021/05/27 11:37:49;;;;;;;;;2.80;2.80;;;;;;;;5001370;28;8870;-75
2021/05/27 11:40:18;;;;;;;;;3.00;3.00;;;;;;;;5002432;28;8886;-82
2021/05/27 11:42:49;;;;;;;;;5.00;5.00;;;;;;;;5002780;28;9783;-76
2021/05/27 11:45:17;;;;;;;;;4.40;4.40;;;;;;;;4988796;28;9022;-75
2021/05/27 11:48:09;;;;;;;;;3.00;3.00;;;;;;;;5007259;28;8843;-75
2021/05/27 11:50:36;;;;;;;;;5.20;4.00;;;;;;;;5001854;28;8878;-75
2021/05/27 11:53:03;;;;;;;;;3.00;3.00;;;;;;;;5002323;28;8874;-75
2021/05/27 11:55:30;;;;;;;;;3.80;3.80;;;;;;;;5001432;28;8859;-75
2021/05/27 11:57:57;;;;;;;;;5.00;5.00;;;;;;;;5002965;28;8874;-74
2021/05/27 12:00:25;;;;;;;;;4.00;4.00;;;;;;;;5002007;28;8896;-77
2021/05/27 12:02:54;;;;;;;;;5.00;5.00;;;;;;;;5002679;28;8867;-77
2021/05/27 12:05:23;;;;;;;;;5.20;5.20;;;;;;;;5009105;28;9644;-75
2021/05/27 12:08:01;;;;;;;;;5.60;4.60;;;;;;;;5006409;28;8859;-74
2021/05/27 12:10:29;;;;;;;;;4.60;4.60;;;;;;;;5007582;28;8871;-75
2021/05/27 12:12:57;;;;;;;;;5.00;5.00;;;;;;;;5006000;28;9007;-77
2021/05/27 12:15:24;;;;;;;;;4.80;4.80;;;;;;;;5007204;28;8854;-76
2021/05/27 12:17:55;;;;;;;;;6.40;5.20;;;;;;;;5005125;28;8870;-75
2021/05/27 12:20:29;;;;;;;;;3.20;3.20;;;;;;;;5005772;28;8862;-76
2021/05/27 12:23:00;;;;;;;;;5.60;5.60;;;;;;;;5001280;28;8854;-73
2021/05/27 12:25:28;;;;;;;;;4.60;4.60;;;;;;;;5004089;28;8944;-76
2021/05/27 12:27:57;;;;;;;;;4.60;4.60;;;;;;;;5008505;28;8858;-74
2021/05/27 12:30:26;;;;;;;;;7.80;6.00;;;;;;;;5004591;28;8905;-75
2021/05/27 12:32:55;;;;;;;;;4.60;4.60;;;;;;;;5007134;28;8862;-75
2021/05/27 12:35:25;;;;;;;;;4.20;4.20;;;;;;;;5006230;28;8847;-74
2021/05/27 12:37:54;;;;;;;;;6.00;4.80;;;;;;;;5005993;28;8876;-74
2021/05/27 12:40:25;;;;;;;;;3.40;3.40;;;;;;;;5007208;28;9636;-77
2021/05/27 12:42:54;;;;;;;;;3.20;3.20;;;;;;;;5007074;28;8862;-74
2021/05/27 12:45:26;;;;;;;;;3.60;2.60;;;;;;;;5005955;28;8862;-75
2021/05/27 12:48:17;;;;;;;;;5.40;5.40;;;;;;;;5006533;28;8977;-75
2021/05/27 12:50:47;;;;;;;;;4.40;4.40;;;;;;;;5001659;28;8874;-75
2021/05/27 12:53:27;;;;;;;;;5.00;5.00;;;;;;;;5006047;28;9609;-74
2021/05/27 12:55:56;;;;;;;;;4.00;4.00;;;;;;;;5004762;28;8855;-75
2021/05/27 12:58:30;;;;;;;;;5.20;4.60;;;;;;;;5005578;28;8851;-75
2021/05/27 13:00:58;;;;;;;;;6.00;5.00;;;;;;;;5004671;28;8945;-76
2021/05/27 13:03:28;;;;;;;;;3.40;3.40;;;;;;;;5004333;28;9088;-75
2021/05/27 13:06:06;;;;;;;;;3.80;3.80;;;;;;;;5008514;28;8839;-76
2021/05/27 13:08:33;;;;;;;;;3.00;3.00;;;;;;;;5004573;28;8915;-75
2021/05/27 13:11:00;;;;;;;;;3.60;3.60;;;;;;;;5006059;28;8859;-75
2021/05/27 13:13:34;;;;;;;;;4.80;2.80;;;;;;;;4998870;28;8847;-75
2021/05/27 13:16:01;;;;;;;;;3.40;3.40;;;;;;;;5002630;28;8851;-75
2021/05/27 13:18:29;;;;;;;;;3.60;3.60;;;;;;;;5000238;28;9092;-76
2021/05/27 13:20:59;;;;;;;;;2.80;2.80;;;;;;;;5004296;28;9528;-74
2021/05/27 13:23:28;;;;;;;;;2.40;2.40;;;;;;;;5006533;28;8858;-76
2021/05/27 13:26:09;;;;;;;;;3.60;3.60;;;;;;;;5004473;28;8871;-75
2021/05/27 13:28:36;;;;;;;;;2.00;2.00;;;;;;;;5005852;28;8843;-74
2021/05/27 13:31:03;;;;;;;;;4.20;2.80;;;;;;;;5002677;28;8942;-77
2021/05/27 13:33:31;;;;;;;;;1.60;1.60;;;;;;;;5003735;28;9018;-74
2021/05/27 13:36:00;;;;;;;;;3.00;3.00;;;;;;;;5004688;28;8858;-76
2021/05/27 13:38:30;;;;;;;;;3.00;3.00;;;;;;;;5005072;28;9618;-76
2021/05/27 13:40:58;;;;;;;;;2.60;2.60;;;;;;;;5006353;28;8906;-76
2021/05/27 13:43:29;;;;;;;;;3.40;3.40;;;;;;;;5003669;28;9667;-77
2021/05/27 13:45:56;;;;;;;;;2.80;2.80;;;;;;;;5002079;28;9003;-74
2021/05/27 13:48:23;;;;;;;;;2.60;2.60;;;;;;;;5003897;28;8866;-76
2021/05/27 13:50:51;;;;;;;;;1.80;1.80;;;;;;;;5005534;28;8875;-74
2021/05/27 13:53:18;;;;;;;;;3.20;2.80;;;;;;;;5005819;28;8890;-73
2021/05/27 13:55:51;;;;;;;;;1.00;1.00;;;;;;;;5004178;28;9013;-76
2021/05/27 13:58:19;;;;;;;;;1.00;1.00;;;;;;;;5006197;28;8871;-76
2021/05/27 14:00:46;;;;;;;;;1.60;1.60;;;;;;;;4993801;28;8798;-76
2021/05/27 14:03:13;;;;;;;;;2.80;2.00;;;;;;;;5004968;28;8924;-75
2021/05/27 14:05:40;;;;;;;;;1.80;1.80;;;;;;;;5001823;28;8997;-77
2021/05/27 14:08:08;;;;;;;;;0.80;0.80;;;;;;;;5006530;28;8870;-73
2021/05/27 14:10:35;;;;;;;;;0.80;0.80;;;;;;;;5002280;28;8862;-76
2021/05/27 14:13:03;;;;;;;;;1.40;1.40;;;;;;;;5004566;28;8882;-74
2021/05/27 14:15:30;;;;;;;;;0.00;0.00;;;;;;;;5004960;28;8838;-73
2021/05/27 14:17:57;;;;;;;;;1.00;1.00;;;;;;;;5004307;28;8907;-75
2021/05/27 14:20:24;;;;;;;;;1.00;1.00;;;;;;;;5004904;28;8879;-74
2021/05/27 14:22:52;;;;;;;;;1.00;1.00;;;;;;;;5003629;28;9934;-75
2021/05/27 14:25:20;;;;;;;;;2.00;2.00;;;;;;;;5004198;28;9648;-75
2021/05/27 14:27:48;;;;;;;;;0.80;0.80;;;;;;;;5005176;28;8868;-76
2021/05/27 14:30:15;;;;;;;;;1.80;1.80;;;;;;;;5003437;28;8867;-76
2021/05/27 14:32:42;;;;;;;;;2.40;2.40;;;;;;;;5005482;28;8887;-76
2021/05/27 14:35:11;;;;;;;;;1.80;1.80;;;;;;;;5006424;28;8870;-76
2021/05/27 14:37:38;;;;;;;;;2.00;2.00;;;;;;;;4989058;28;8932;-75
2021/05/27 14:40:06;;;;;;;;;3.60;1.80;;;;;;;;5005397;28;8885;-77
2021/05/27 14:42:34;;;;;;;;;2.20;2.20;;;;;;;;5005339;28;9005;-76
2021/05/27 14:45:01;;;;;;;;;1.40;1.40;;;;;;;;5004760;28;8901;-77
2021/05/27 14:47:27;;;;;;;;;2.00;2.00;;;;;;;;4995768;28;8898;-76
2021/05/27 14:49:54;;;;;;;;;1.00;1.00;;;;;;;;5004022;28;8890;-77
2021/05/27 14:52:21;;;;;;;;;1.40;1.40;;;;;;;;5003384;28;8889;-78
2021/05/27 14:54:48;;;;;;;;;1.20;1.20;;;;;;;;5004773;28;8871;-75
2021/05/27 14:57:15;;;;;;;;;2.00;2.00;;;;;;;;5002861;28;8871;-77
2021/05/27 14:59:43;;;;;;;;;1.40;1.40;;;;;;;;5003802;28;9076;-76
2021/05/27 15:02:10;;;;;;;;;2.80;2.80;;;;;;;;5007101;28;8833;-74